Texas Logo

Spring, TX Single Family Real Estate Listings

1949 Total Real Estate Listings * Click on table heading to sort
Date Posted Property Type Style Address Price Living Area Lot Size Price/Sq Ft.
2018-11-28 Single Family Traditional 730 Merrimac Ridge Lane Spring, TX 77373 $285,000 3,740 sq. ft. 11,761 sq. ft. $76
2018-11-28 Single Family Georgian 29331 Indian Clearing Trail Spring, TX 77386 $220,000 2,376 sq. ft. 6,098 sq. ft. $93
2018-11-28 Single Family Traditional 3014 Aspen Fair Trail Spring, TX 77389 $153,900 1,154 sq. ft. 4,792 sq. ft. $133
2018-11-28 Single Family Traditional 31218 Maple Park Lane Spring, TX 77386 $675,000 4,321 sq. ft. 10,890 sq. ft. $156
2018-11-27 Single Family Traditional 17610 Mantana Court Spring, TX 77388 $238,000 2,638 sq. ft. 9,148 sq. ft. $90
2018-11-27 Single Family Traditional 231 Tupelo Green Circle Spring, TX 77389 $509,500 3,850 sq. ft. 8,276 sq. ft. $132
2018-11-27 Single Family Traditional 19302 Sanctuary Rose Bud Lane Spring, TX 77388 $382,000 3,183 sq. ft. 10,454 sq. ft. $120
2018-11-27 Single Family Traditional 16215 Wimbledon Forest Drive Spring, TX 77379 $389,900 4,400 sq. ft. 11,326 sq. ft. $89
2018-11-27 Single Family Traditional 25003 Pikecrest Drive Spring, TX 77389 $309,900 3,316 sq. ft. 13,068 sq. ft. $93
2018-11-27 Single Family Traditional 22502 Shibe Park Court Spring, TX 77389 $259,000 2,808 sq. ft. 8,276 sq. ft. $92
2018-11-27 Single Family Traditional 5819 Ashmere Lane Spring, TX 77379 $240,000 2,847 sq. ft. 8,712 sq. ft. $84
2018-11-27 Single Family Traditional 218 Hillside Court Spring, TX 77386 $227,900 1,751 sq. ft. 24,829 sq. ft. $130
2018-11-27 Single Family Traditional 25110 Collingtree Drive Spring, TX 77389 $209,000 2,492 sq. ft. 9,148 sq. ft. $84
2018-11-27 Single Family Traditional 30222 Legacy Pines Drive Spring, TX 77386 $248,888 2,772 sq. ft. 6,098 sq. ft. $90
2018-11-27 Single Family Traditional 31270 Shady Arbor Lane Spring, TX 77386 $499,900 3,713 sq. ft. 10,454 sq. ft. $135
2018-11-27 Single Family Traditional 27986 Clear Pines Drive Spring, TX 77386 $268,320 1,992 sq. ft. 6,970 sq. ft. $135
2018-11-27 Single Family Traditional 4042 Evening Trail Drive Spring, TX 77388 $179,900 1,995 sq. ft. 8,276 sq. ft. $90
2018-11-27 Single Family Contemporary/Modern 2122 Dalton Park Court Spring, TX 77373 $175,000 1,910 sq. ft. 5,227 sq. ft. $92
2018-11-27 Single Family Traditional 3523 Sunlight Hill Lane Spring, TX 77386 $289,000 2,780 sq. ft. 8,712 sq. ft. $104
2018-11-27 Single Family Traditional 519 Anacacho Drive Spring, TX 77386 $225,000 2,588 sq. ft. 6,534 sq. ft. $87
2018-11-27 Single Family Split Level; Traditional 6902 Stoney River Drive Spring, TX 77379 $163,000 2,170 sq. ft. 7,405 sq. ft. $75
2018-11-27 Single Family Traditional 6431 Lynngate Drive Spring, TX 77373 $165,000 1,451 sq. ft. 6,098 sq. ft. $114
2018-11-27 Single Family Traditional 6807 Pinehearth Court Spring, TX 77379 $395,000 4,522 sq. ft. 10,454 sq. ft. $87
2018-11-26 Single Family Traditional 7950 Wooded Way Drive Spring, TX 77389 $540,000 4,308 sq. ft. 23,958 sq. ft. $125
2018-11-26 Single Family Traditional 7510 Evelyn Grove Spring, TX 77379 $352,190 2,845 sq. ft. $124
2018-11-26 Single Family Contemporary/Modern 318 Cypresswood Drive Spring, TX 77388 $210,000 2,168 sq. ft. 8,712 sq. ft. $97
2018-11-26 Single Family Traditional 23526 Stargazer Point Spring, TX 77373 $177,000 1,916 sq. ft. 5,663 sq. ft. $92
2018-11-26 Single Family Traditional 6803 Billingham Court Spring, TX 77379 $305,000 2,688 sq. ft. 15,682 sq. ft. $113
2018-11-26 Single Family Traditional 6207 Menor Crest Drive Spring, TX 77388 $269,900 3,159 sq. ft. 5,663 sq. ft. $85
2018-11-26 Single Family Other Style 22422 Highfield Ridge Lane Spring, TX 77373 $159,999 1,371 sq. ft. 5,663 sq. ft. $117
2018-11-26 Single Family Traditional 3103 Hopeton Drive Spring, TX 77386 $354,900 4,164 sq. ft. 10,019 sq. ft. $85
2018-11-26 Single Family Traditional 7715 Dane Hill Drive Drive Spring, TX 77389 $249,900 2,083 sq. ft. 10,019 sq. ft. $120
2018-11-26 Single Family Traditional 658 Cypresswood Trace Spring, TX 77373 $187,000 2,310 sq. ft. 4,792 sq. ft. $81
2018-11-26 Single Family Traditional 22711 Timber Dust Circle Spring, TX 77373 $179,900 2,122 sq. ft. 6,098 sq. ft. $85
2018-11-26 Single Family Traditional 2106 Trailing Vine Road Spring, TX 77373 $139,000 1,512 sq. ft. 6,534 sq. ft. $92
2018-11-26 Single Family Traditional 9111 Godstone Lane Spring, TX 77379 $245,000 2,680 sq. ft. 9,148 sq. ft. $91
2018-11-25 Single Family Traditional 5315 Lacreek Lane Spring, TX 77379 $229,000 2,392 sq. ft. 9,583 sq. ft. $96
2018-11-25 Single Family Traditional 3646 Postwood Drive Spring, TX 77388 $239,900 2,396 sq. ft. 18,295 sq. ft. $100
2018-11-25 Single Family Traditional 10414 Pitcataway Drive Spring, TX 77379 $229,900 2,062 sq. ft. 8,712 sq. ft. $111
2018-11-25 Single Family Contemporary/Modern 17319 Cypress Spring Drive Spring, TX 77388 $195,000 2,662 sq. ft. 9,148 sq. ft. $73
2018-11-24 Single Family Contemporary/Modern 26819 Cypresswood Drive Spring, TX 77373 $159,000 1,722 sq. ft. 7,405 sq. ft. $92
2018-11-24 Single Family Traditional 25102 Butterwick Drive Spring, TX 77389 $205,000 2,058 sq. ft. 9,583 sq. ft. $100
2018-11-24 Single Family Other Style 27519 Colin Springs Lane Spring, TX 77386 $349,000 3,579 sq. ft. 9,148 sq. ft. $98
2018-11-24 Single Family Contemporary/Modern 21523 Karpathos Lane Spring, TX 77388 $187,500 2,208 sq. ft. 5,227 sq. ft. $85
2018-11-24 Single Family Split Level; Traditional 22311 Daniel Oak Circle Spring, TX 77389 $175,000 1,819 sq. ft. 7,405 sq. ft. $96
2018-11-23 Single Family Traditional 3900 Enchanted Timbers Lane Spring, TX 77386 $300,000 2,641 sq. ft. 7,841 sq. ft. $114
2018-11-23 Single Family Traditional 5619 Circlegate Drive Spring, TX 77373 $150,000 1,976 sq. ft. 7,405 sq. ft. $76
2018-11-23 Single Family Traditional 20827 Rose Crossing Lane Spring, TX 77379 $259,900 2,460 sq. ft. 6,970 sq. ft. $106
2018-11-23 Single Family Traditional 23326 Newgate Dr Drive Spring, TX 77373 $125,000 1,140 sq. ft. 6,534 sq. ft. $110
2018-11-23 Single Family Traditional 20314 Rosegold Way Spring, TX 77379 $393,104 3,248 sq. ft. $121
2018-11-23 Single Family Traditional 7434 Bethpage Lane Spring, TX 77389 $412,390 2,939 sq. ft. $140
2018-11-23 Single Family Traditional 3517 Brian Valley Court Spring, TX 77386 $328,240 2,841 sq. ft. $116
2018-11-23 Single Family Traditional 6822 Gallinas Way Spring, TX 77379 $346,840 2,830 sq. ft. $123
2018-11-23 Single Family Traditional 7427 Bethpage Lane Spring, TX 77389 $374,103 2,027 sq. ft. $185
2018-11-23 Single Family Traditional 6818 Chicoma Street Spring, TX 77379 $331,390 2,105 sq. ft. $157
2018-11-23 Single Family Traditional 17415 Majestic Forest Drive Spring, TX 77379 $235,000 2,569 sq. ft. 11,761 sq. ft. $91
2018-11-23 Single Family Georgian; Traditional 17206 Seven Pines Drive Spring, TX 77379 $205,000 2,296 sq. ft. 6,970 sq. ft. $89
2018-11-23 Single Family Traditional 24611 Wilderness Road Spring, TX 77380 $164,900 1,451 sq. ft. 12,197 sq. ft. $114
2018-11-23 Single Family Traditional 21507 Tangle Creek Lane Spring, TX 77388 $160,000 1,355 sq. ft. 6,098 sq. ft. $118
2018-11-22 Single Family Traditional 17510 Harrison Lakes Circle Spring, TX 77379 $387,000 3,487 sq. ft. 10,019 sq. ft. $111
2018-11-22 Single Family Traditional 1623 Andrew Chase Lane Spring, TX 77386 $289,900 2,635 sq. ft. 8,276 sq. ft. $110
2018-11-22 Single Family Traditional 38 Bayou Springs Court Spring, TX 77382 $240,000 1,747 sq. ft. 6,098 sq. ft. $137
2018-11-22 Single Family Traditional 22922 Sherioaks Lane Spring, TX 77389 $155,000 1,556 sq. ft. 4,356 sq. ft. $100
2018-11-21 Single Family Traditional 6503 Loblolly Vista Drive Spring, TX 77389 $300,000 2,714 sq. ft. 8,276 sq. ft. $111
2018-11-21 Single Family Traditional 20106 Windbury Court Spring, TX 77379 $255,000 2,332 sq. ft. 8,276 sq. ft. $109
2018-11-21 Single Family Traditional 3851 Oakmist Bend Lane Spring, TX 77386 $288,000 2,662 sq. ft. 7,405 sq. ft. $108
2018-11-21 Single Family Traditional 3853 Enchanted Timbers Lane Spring, TX 77386 $249,900 1,986 sq. ft. 6,098 sq. ft. $126
2018-11-21 Single Family Mediterranean 17111 Lapeer Court Spring, TX 77379 $799,900 5,646 sq. ft. 13,504 sq. ft. $142
2018-11-21 Single Family Traditional 27823 Harmony Branch Drive Spring, TX 77386 $465,000 4,395 sq. ft. 8,276 sq. ft. $106
2018-11-21 Single Family Traditional 8514 Canyon Ridge Drive Spring, TX 77379 $207,000 2,117 sq. ft. 7,841 sq. ft. $98
2018-11-21 Single Family Traditional 1418 Merryglen Court Spring, TX 77373 $180,000 1,695 sq. ft. 5,227 sq. ft. $106
2018-11-21 Single Family Traditional 20307 Pinellas Park Court Spring, TX 77379 $319,900 3,560 sq. ft. 10,454 sq. ft. $90
2018-11-21 Single Family Traditional 2638 Blue Vervain Drive Spring, TX 77386 $319,900 3,312 sq. ft. 7,841 sq. ft. $97
2018-11-21 Single Family Traditional 4534 Sorrell Glen Court Spring, TX 77388 $294,500 3,140 sq. ft. 15,246 sq. ft. $94
2018-11-21 Single Family Other Style 20311 Harbor Springs Lane Spring, TX 77379 $469,900 3,516 sq. ft. 8,276 sq. ft. $134
2018-11-21 Single Family Traditional 20203 Iberian Court Spring, TX 77379 $375,000 2,663 sq. ft. 8,712 sq. ft. $141
2018-11-21 Single Family Traditional 606 Cypresswood Drive Spring, TX 77373 $265,000 2,659 sq. ft. 27,007 sq. ft. $100
2018-11-21 Single Family Traditional 1230 Berwick Manor Court Spring, TX 77379 $275,000 2,507 sq. ft. 10,019 sq. ft. $110
2018-11-21 Single Family Traditional 1519 Bella Garden Court Spring, TX 77373 $212,990 2,667 sq. ft. $80
2018-11-21 Single Family Traditional 1506 Bella Garden Court Spring, TX 77373 $217,290 2,455 sq. ft. $89
2018-11-21 Single Family Traditional 1503 Bella Garden Court Spring, TX 77373 $209,990 2,140 sq. ft. $98
2018-11-21 Single Family English 7911 Heathrow Lane Spring, TX 77379 $197,000 1,898 sq. ft. 8,712 sq. ft. $104
2018-11-21 Single Family Traditional 25019 Northampton Terrace Drive Spring, TX 77389 $431,000 3,345 sq. ft. 8,712 sq. ft. $129
2018-11-21 Single Family Traditional 20322 Cembra Walk Spring, TX 77379 $275,000 3,182 sq. ft. 11,326 sq. ft. $86
2018-11-21 Single Family Traditional 6814 Peace River Drive Spring, TX 77379 $190,000 2,062 sq. ft. 8,276 sq. ft. $92
2018-11-20 Single Family Ranch 29075 Birch Green Way Spring, TX 77386 $177,000 1,554 sq. ft. 4,792 sq. ft. $114
2018-11-20 Single Family Traditional 111 Meadowmist Circle Spring, TX 77381 $705,000 4,054 sq. ft. 13,504 sq. ft. $174
2018-11-20 Single Family Traditional 7914 Theiss Hill Drive Spring, TX 77379 $289,900 2,914 sq. ft. 8,712 sq. ft. $99
2018-11-20 Single Family Traditional 7826 Kleingreen Lane Spring, TX 77379 $250,000 2,282 sq. ft. 8,276 sq. ft. $110
2018-11-20 Single Family Traditional 4244 Palmer Hill Drive Spring, TX 77386 $378,900 2,589 sq. ft. 871 sq. ft. $146
2018-11-20 Single Family Traditional 3115 Katner Lane Spring, TX 77386 $329,900 3,245 sq. ft. 12,197 sq. ft. $102
2018-11-20 Single Family Traditional 8206 Redchurch Drive Spring, TX 77379 $317,000 3,368 sq. ft. 6,970 sq. ft. $94
2018-11-20 Single Family Traditional 22611 Pebworth Place Spring, TX 77373 $139,999 1,576 sq. ft. 6,534 sq. ft. $89
2018-11-20 Single Family Traditional 2319 Imperial Path Lane Spring, TX 77386 $535,700 4,903 sq. ft. 12,632 sq. ft. $109
2018-11-20 Single Family Traditional 19522 Creek Bend Drive Spring, TX 77388 $249,900 4,164 sq. ft. 8,276 sq. ft. $60
2018-11-20 Single Family Traditional 29522 Legends Bluff Drive Spring, TX 77386 $182,000 1,785 sq. ft. 7,841 sq. ft. $102
2018-11-20 Single Family Traditional 21630 Castlemont Lane Spring, TX 77388 $136,000 1,654 sq. ft. 9,583 sq. ft. $82
2018-11-20 Single Family Traditional 27815 Oakpoint Falls Drive Spring, TX 77386 $212,304 1,403 sq. ft. $151
2018-11-20 Single Family Traditional 2318 Garden Square Path Spring, TX 77386 $243,235 2,336 sq. ft. $104
2018-11-20 Single Family Traditional 25031 Jennifer Heights Court Spring, TX 77389 $729,000 4,027 sq. ft. 16,988 sq. ft. $181
2018-11-20 Single Family Traditional 23410 Goldking Cross Court Spring, TX 77373 $225,000 2,914 sq. ft. 7,841 sq. ft. $77
2018-11-20 Single Family Traditional 24006 Landing Way Drive Spring, TX 77373 $172,900 2,159 sq. ft. 5,663 sq. ft. $80
2018-11-19 Single Family Other Style 2308 Sciaaca Road Spring, TX 77373 $275,000 1,120 sq. ft. 43,560 sq. ft. $246
2018-11-19 Single Family Traditional 6323 Allentown Drive Spring, TX 77389 $350,000 3,141 sq. ft. 16,553 sq. ft. $111
2018-11-19 Single Family Traditional 21815 Colter Stone Drive Drive Spring, TX 77388 $259,900 2,743 sq. ft. 6,098 sq. ft. $95
2018-11-19 Single Family Traditional 25503 Long Iron Court Spring, TX 77389 $384,999 3,002 sq. ft. 7,405 sq. ft. $128
2018-11-19 Single Family Traditional 4323 Imperial Gardens Drive Spring, TX 77386 $271,000 2,584 sq. ft. 6,970 sq. ft. $105
2018-11-19 Single Family Traditional 3118 Dappled Vale Trail Spring, TX 77373 $213,980 1,776 sq. ft. $120
2018-11-19 Single Family Traditional 29329 Legends Meade Drive Spring, TX 77386 $239,000 3,191 sq. ft. 5,663 sq. ft. $75
2018-11-19 Single Family Traditional 23722 Springwolf Spring, TX 77373 $239,990 2,708 sq. ft. $89
2018-11-19 Single Family Traditional 29315 Loddington St Spring, TX 77386 $162,000 1,356 sq. ft. 6,970 sq. ft. $119
2018-11-19 Single Family Traditional 22742 Northgate Ridge Drive Spring, TX 77373 $187,500 2,006 sq. ft. 6,098 sq. ft. $93
2018-11-19 Single Family Traditional 19535 Piney Lake Drive Spring, TX 77388 $310,000 3,348 sq. ft. 9,148 sq. ft. $93
2018-11-19 Single Family Traditional 30724 Academy Trace Drive Spring, TX 77386 $259,900 3,108 sq. ft. 7,841 sq. ft. $84
2018-11-18 Single Family Traditional 3623 Cypressdale Drive Spring, TX 77388 $184,900 1,812 sq. ft. 8,276 sq. ft. $102
2018-11-18 Single Family Traditional 2239 Walnut Fair Lane Spring, TX 77373 $141,900 1,564 sq. ft. 3,049 sq. ft. $91
2018-11-18 Single Family Traditional 8911 Leaning Hollow Lane Spring, TX 77379 $399,000 3,199 sq. ft. 11,326 sq. ft. $125
2018-11-18 Single Family Traditional 1823 Welsford Drive Spring, TX 77386 $229,900 2,590 sq. ft. 8,712 sq. ft. $89
2018-11-18 Single Family Traditional 23015 Elephant Walk Street Spring, TX 77389 $239,000 2,598 sq. ft. 16,553 sq. ft. $92
2018-11-18 Single Family Traditional 21606 Avalon Queen Drive Spring, TX 77379 $249,000 2,424 sq. ft. 6,534 sq. ft. $103
2018-11-18 Single Family Traditional 19118 Center Park Spring, TX 77373 $180,000 1,885 sq. ft. $95
2018-11-18 Single Family Contemporary/Modern 22703 Sherioaks Lane Spring, TX 77389 $125,000 1,153 sq. ft. 5,663 sq. ft. $108
2018-11-18 Single Family Traditional 23603 Prairie Bird Drive Spring, TX 77373 $119,000 1,016 sq. ft. 5,227 sq. ft. $117
2018-11-18 Single Family Traditional 5422 Brookway Willow Drive Spring, TX 77379 $254,900 2,765 sq. ft. 6,534 sq. ft. $92
2018-11-17 Single Family Georgian 1107 Lynwood Road Spring, TX 77373 $299,990 3,314 sq. ft. 36,155 sq. ft. $91
2018-11-17 Single Family Traditional 31306 Trinity Park Lane Spring, TX 77386 $325,000 3,006 sq. ft. 7,405 sq. ft. $108
2018-11-17 Single Family Traditional 6902 Huntbrook Drive Spring, TX 77379 $159,000 1,388 sq. ft. 6,970 sq. ft. $115
2018-11-17 Single Family Traditional 4211 Dawn Creek Lane Spring, TX 77388 $170,000 1,774 sq. ft. 6,970 sq. ft. $96
2018-11-17 Single Family Traditional 6214 Laver Love Drive Spring, TX 77379 $449,000 4,594 sq. ft. 10,019 sq. ft. $98
2018-11-17 Single Family Traditional 16218 Chipstead Drive Spring, TX 77379 $250,000 2,824 sq. ft. 10,454 sq. ft. $89
2018-11-17 Single Family Traditional 5706 Valley Scene Way Way Spring, TX 77379 $174,900 1,633 sq. ft. 6,534 sq. ft. $107
2018-11-17 Single Family Traditional 5915 Inway Drive Spring, TX 77389 $850,000 6,505 sq. ft. 45,738 sq. ft. $131
2018-11-17 Single Family Ranch 115 Beech Springs Circle Spring, TX 77389 $479,900 3,247 sq. ft. 10,890 sq. ft. $148
2018-11-17 Single Family Other Style 419 Artesia Street Spring, TX 77373 $199,888 1,983 sq. ft. 13,504 sq. ft. $101
2018-11-17 Single Family Traditional 3543 Acorn Way Lane Spring, TX 77389 $175,000 1,414 sq. ft. 7,405 sq. ft. $124
2018-11-17 Single Family Traditional 7202 Adalyn Arbor Drive Spring, TX 77389 $290,000 3,044 sq. ft. 5,663 sq. ft. $95
2018-11-17 Single Family Colonial; Traditional 4706 Cypressdale Drive Spring, TX 77388 $188,500 1,860 sq. ft. 7,405 sq. ft. $101
2018-11-17 Single Family Traditional 21822 Tophill Drive Spring, TX 77388 $185,000 1,822 sq. ft. 10,019 sq. ft. $102
2018-11-17 Single Family Traditional 24414 Pine Canyon Drive Spring, TX 77380 $279,500 3,199 sq. ft. 29,621 sq. ft. $87
2018-11-16 Single Family Traditional 25915 Bearborough Drive Spring, TX 77386 $224,900 2,184 sq. ft. 9,148 sq. ft. $103
2018-11-16 Single Family Traditional 6435 Bella Sera Drive Spring, TX 77379 $173,700 1,928 sq. ft. 5,663 sq. ft. $90
2018-11-16 Single Family Traditional 3403 Blue Candle Drive Spring, TX 77388 $337,000 3,553 sq. ft. 9,148 sq. ft. $95
2018-11-16 Single Family Traditional 7303 Saddle Tree Spring, TX 77379 $373,730 3,271 sq. ft. 13,068 sq. ft. $114
2018-11-16 Single Family Traditional 29634 Yaupon Shore Spring, TX 77386 $355,769 3,271 sq. ft. 6,534 sq. ft. $109
2018-11-16 Single Family Traditional 29650 Yaupon Shore Spring, TX 77386 $358,233 3,271 sq. ft. 6,534 sq. ft. $110
2018-11-16 Single Family Traditional 29618 Yaupon Shore Spring, TX 77386 $373,046 3,271 sq. ft. 6,534 sq. ft. $114
2018-11-16 Single Family Traditional 7430 Windsor View Spring, TX 77379 $350,993 2,682 sq. ft. 7,405 sq. ft. $131
2018-11-16 Single Family Traditional 29642 Yaupon Shore Spring, TX 77386 $310,965 2,078 sq. ft. 6,534 sq. ft. $150
2018-11-16 Single Family Traditional 29615 Yaupon Shore Spring, TX 77386 $356,322 2,682 sq. ft. 6,534 sq. ft. $133
2018-11-16 Single Family Traditional 3799 Lake Bend Shore Spring, TX 77386 $331,630 2,453 sq. ft. 6,534 sq. ft. $135
2018-11-16 Single Family Traditional 29622 Yaupon Shore Spring, TX 77386 $333,259 2,453 sq. ft. 6,970 sq. ft. $136
2018-11-16 Single Family Traditional 29611 Yaupon Shore Spring, TX 77386 $338,150 2,453 sq. ft. 7,405 sq. ft. $138
2018-11-16 Single Family Traditional 4321 Silver Oak Spring, TX 77386 $373,390 3,022 sq. ft. 6,534 sq. ft. $124
2018-11-16 Single Family Traditional 30615 Lavender Trace Drive Spring, TX 77386 $270,000 3,026 sq. ft. 5,227 sq. ft. $89
2018-11-16 Single Family Traditional 20902 Auburn Ridge Lane Spring, TX 77379 $295,000 2,463 sq. ft. 10,890 sq. ft. $120
2018-11-16 Single Family Traditional 30627 Victoria Estates Drive Spring, TX 77386 $349,999 3,196 sq. ft. 9,583 sq. ft. $110
2018-11-16 Single Family Traditional 3426 Durango Canyon Lane Spring, TX 77386 $249,900 2,637 sq. ft. 7,841 sq. ft. $95
2018-11-16 Single Family Ranch 26524 Cypresswood Drive Spring, TX 77373 $159,900 1,686 sq. ft. 11,761 sq. ft. $95
2018-11-16 Single Family Traditional 22810 Red Leo Lane Spring, TX 77389 $159,900 2,048 sq. ft. 4,792 sq. ft. $78
2018-11-16 Single Family Traditional 611 Linden Manor Court Spring, TX 77373 $189,000 1,843 sq. ft. 8,712 sq. ft. $103
2018-11-16 Single Family Traditional 1422 High Thicket Court Spring, TX 77373 $168,000 1,990 sq. ft. 6,098 sq. ft. $84
2018-11-16 Single Family Traditional 5418 Harvest Oak Landing Drive Spring, TX 77386 $550,000 3,572 sq. ft. 43,560 sq. ft. $154
2018-11-16 Single Family Traditional 6902 Sandwedge Point Spring, TX 77389 $695,000 4,573 sq. ft. 22,651 sq. ft. $152
2018-11-16 Single Family Traditional 29646 Yaupon Shore Spring, TX 77386 $306,013 1,704 sq. ft. 6,534 sq. ft. $180
2018-11-16 Single Family Traditional 7418 Saddle Tree Spring, TX 77379 $318,294 2,682 sq. ft. 7,405 sq. ft. $119
2018-11-16 Single Family Traditional 21922 Hannover Ridge Drive Spring, TX 77388 $209,995 1,933 sq. ft. 5,663 sq. ft. $109
2018-11-16 Single Family Traditional 3515 El James Drive Spring, TX 77388 $213,900 2,398 sq. ft. 8,712 sq. ft. $89
2018-11-16 Single Family Traditional 3158 Aspen Fair Trl Trail Spring, TX 77389 $185,000 1,724 sq. ft. 6,534 sq. ft. $107
2018-11-16 Single Family Colonial 2439 Cypress Tree Drive Spring, TX 77373 $159,900 1,584 sq. ft. 7,841 sq. ft. $101
2018-11-16 Single Family Traditional 4222 Grand Oaks Wind Spring, TX 77386 $324,900 2,205 sq. ft. 7,405 sq. ft. $147
2018-11-16 Single Family Traditional 21906 Trapper Lake Drive Spring, TX 77388 $248,500 2,786 sq. ft. 5,227 sq. ft. $89
2018-11-16 Single Family Traditional 19534 Whitewood Drive Spring, TX 77373 $185,000 2,114 sq. ft. 13,939 sq. ft. $88
2018-11-16 Single Family Traditional 3110 Pine Dust Ln Spring, TX 77373 $145,000 1,684 sq. ft. $86
2018-11-16 Single Family Traditional 6511 Augusta Pines Parkway Spring, TX 77389 $999,900 5,487 sq. ft. 39,640 sq. ft. $182
2018-11-16 Single Family Mediterranean 70 Shadow Creek Ridge Drive Spring, TX 77389 $499,000 3,340 sq. ft. 7,841 sq. ft. $149
2018-11-16 Single Family Traditional 23102 Lestergate Drive Spring, TX 77373 $157,500 1,729 sq. ft. 8,276 sq. ft. $91
2018-11-16 Single Family Traditional 8211 Hidden Trail Lane Spring, TX 77379 $275,000 3,026 sq. ft. $91
2018-11-16 Single Family Traditional 7323 Adalyn Arbor Dr Drive Spring, TX 77389 $240,000 2,977 sq. ft. 6,970 sq. ft. $81
2018-11-16 Single Family Traditional 25807 Coyote Springs Court Spring, TX 77373 $258,000 3,168 sq. ft. 8,276 sq. ft. $81
2018-11-16 Single Family Traditional 20938 Jessica Rose Lane Spring, TX 77379 $200,000 1,840 sq. ft. 6,534 sq. ft. $109
2018-11-16 Single Family Traditional 25631 Glen Loch Drive Spring, TX 77380 $178,900 1,562 sq. ft. 11,326 sq. ft. $115
2018-11-15 Single Family Traditional 7006 Huntbrook Drive Spring, TX 77379 $194,000 2,288 sq. ft. 6,970 sq. ft. $85
2018-11-15 Single Family Traditional 24115 Spring Gum Drive Spring, TX 77373 $155,000 1,470 sq. ft. 6,534 sq. ft. $105
2018-11-15 Single Family Traditional 2502 Broad Timbers Drive Spring, TX 77373 $190,000 2,511 sq. ft. 8,712 sq. ft. $76
2018-11-15 Single Family Traditional 20222 Windsor Field Road Spring, TX 77379 $377,966 3,105 sq. ft. 7,405 sq. ft. $122
2018-11-15 Single Family Contemporary/Modern 26134 White Sage Cove Lane Spring, TX 77386 $319,900 2,770 sq. ft. 6,534 sq. ft. $115
2018-11-15 Single Family Traditional 7734 Candlelight Park Lane Spring, TX 77379 $346,673 2,996 sq. ft. 13,068 sq. ft. $116
2018-11-15 Single Family Traditional 6722 Montay Bay Drive Spring, TX 77389 $349,975 3,496 sq. ft. 8,712 sq. ft. $100
2018-11-15 Single Family Traditional 18921 Mountain Spring Drive Spring, TX 77379 $299,000 4,488 sq. ft. 13,068 sq. ft. $67
2018-11-15 Single Family Traditional 3931 Cypress Lake Drive Spring, TX 77388 $225,000 2,777 sq. ft. 10,890 sq. ft. $81
2018-11-15 Single Family Traditional 8018 Louise Oak Court Spring, TX 77379 $185,000 1,855 sq. ft. 4,792 sq. ft. $100
2018-11-15 Single Family Traditional 2003 Cias Trail Lane Spring, TX 77386 $419,000 4,142 sq. ft. 10,890 sq. ft. $101
2018-11-15 Single Family Other Style; Ranch 20227 Rosegold Spring, TX 77379 $459,215 3,607 sq. ft. $127
2018-11-15 Single Family Mediterranean 20614 Mount Highland Park Spring, TX 77379 $383,990 2,829 sq. ft. $136
2018-11-15 Single Family Traditional 7031 Riata Hills Lane Spring, TX 77379 $223,000 1,670 sq. ft. 6,098 sq. ft. $134
2018-11-15 Single Family Contemporary/Modern 31743 Summit Springs Lane Spring, TX 77386 $209,000 1,596 sq. ft. 6,098 sq. ft. $131
2018-11-15 Single Family Traditional 25703 Gamewood Ct Court Spring, TX 77386 $200,000 1,591 sq. ft. 8,276 sq. ft. $126
2018-11-15 Single Family Contemporary/Modern 27326 Shady Hills Landing Spring, TX 77386 $799,900 4,305 sq. ft. 87,120 sq. ft. $186
2018-11-15 Single Family Traditional 7515 Laguna Lake Spring, TX 77379 $433,769 3,178 sq. ft. 9,148 sq. ft. $136
2018-11-15 Single Family Traditional 16702 Halkin Court Spring, TX 77379 $375,000 3,332 sq. ft. 11,326 sq. ft. $113
2018-11-15 Single Family Traditional 6 Gull Rock Place Spring, TX 77389 $374,000 2,812 sq. ft. 9,583 sq. ft. $133
2018-11-15 Single Family Ranch; Traditional 734 Shady Lodge Lane Spring, TX 77373 $172,900 1,612 sq. ft. 6,098 sq. ft. $107
2018-11-15 Single Family Traditional 8911 Tranquil Park Drive Spring, TX 77379 $499,000 5,211 sq. ft. 18,731 sq. ft. $96
2018-11-15 Single Family Traditional 22019 Bridgestone Hawk Court Spring, TX 77388 $319,000 3,100 sq. ft. 9,148 sq. ft. $103
2018-11-15 Single Family Traditional 27 Fire Flicker Place Spring, TX 77381 $227,500 1,579 sq. ft. 4,792 sq. ft. $144
2018-11-15 Single Family Traditional 2503 Soledad Ridge Drive Spring, TX 77373 $193,500 1,769 sq. ft. 4,792 sq. ft. $109
2018-11-15 Single Family Traditional 4018 Broken Elm Drive Spring, TX 77388 $134,000 1,773 sq. ft. 7,405 sq. ft. $76
2018-11-15 Single Family Traditional 21207 Fire Wind Court Spring, TX 77379 $145,000 1,314 sq. ft. 5,663 sq. ft. $110
2018-11-15 Single Family Traditional 23223 Creek Park Drive Spring, TX 77389 $426,000 3,327 sq. ft. 12,632 sq. ft. $128
2018-11-14 Single Family Traditional 21326 Hannover Pines Drive Spring, TX 77388 $215,000 2,123 sq. ft. 6,970 sq. ft. $101
2018-11-14 Single Family Traditional 18623 Minden Oaks Drive Spring, TX 77388 $389,000 3,481 sq. ft. 7,841 sq. ft. $112
2018-11-14 Single Family Traditional 7 Valera Ridge Drive Spring, TX 77389 $699,000 4,344 sq. ft. 14,810 sq. ft. $161
2018-11-14 Single Family Traditional 6810 American Elm Lane Spring, TX 77389 $510,000 4,405 sq. ft. 15,246 sq. ft. $116
2018-11-14 Single Family Traditional 23311 Preserve Glen Circle Spring, TX 77389 $360,000 2,920 sq. ft. 7,405 sq. ft. $123
2018-11-14 Single Family Traditional 21535 Pepperberry Trail Spring, TX 77388 $214,800 1,972 sq. ft. 5,663 sq. ft. $109
2018-11-14 Single Family Traditional 25026 Morris Park Court Spring, TX 77389 $535,000 3,648 sq. ft. 10,454 sq. ft. $147
2018-11-14 Single Family Traditional 3647 Lost Oak Drive Spring, TX 77388 $209,900 2,161 sq. ft. 8,276 sq. ft. $97
2018-11-14 Single Family Ranch; Traditional 22615 Pebworth Place Spring, TX 77373 $155,000 1,622 sq. ft. 5,663 sq. ft. $96
2018-11-14 Single Family Traditional 99 Victoriana Circle Spring, TX 77389 $355,000 3,011 sq. ft. 8,276 sq. ft. $118
2018-11-14 Single Family Traditional 2107 Kelona Drive Spring, TX 77386 $205,000 1,988 sq. ft. 6,970 sq. ft. $103
2018-11-14 Single Family Contemporary/Modern 4826 Aquagate Drive Spring, TX 77373 $165,000 1,628 sq. ft. 6,098 sq. ft. $101
2018-11-14 Single Family Traditional 6215 Windrose Hollow Lane Spring, TX 77379 $649,000 5,102 sq. ft. 16,553 sq. ft. $127
2018-11-14 Single Family Traditional 27151 Rose Vervain Drive Spring, TX 77386 $350,000 3,422 sq. ft. 7,405 sq. ft. $102
2018-11-14 Single Family Traditional 1634 Eden Meadows Drive Spring, TX 77386 $274,900 2,614 sq. ft. 8,712 sq. ft. $105
2018-11-14 Single Family Traditional 4207 Dawn Creek Lane Spring, TX 77388 $163,200 1,646 sq. ft. 11,326 sq. ft. $99
2018-11-14 Single Family Traditional 5223 Pimberton Spring, TX 77379 $155,000 1,406 sq. ft. $110
2018-11-14 Single Family Traditional 20619 Cypress Tree Lane Spring, TX 77388 $295,000 2,843 sq. ft. 9,583 sq. ft. $104
2018-11-13 Single Family Ranch 23915 Pinecreek Point Spring, TX 77373 $189,999 1,730 sq. ft. 6,534 sq. ft. $110
2018-11-13 Single Family Traditional 23207 Westgate Village Lane Spring, TX 77373 $274,900 3,429 sq. ft. 9,583 sq. ft. $80
2018-11-13 Single Family Traditional 59 Wynnoak Circle Spring, TX 77382 $259,900 2,112 sq. ft. 7,405 sq. ft. $123
2018-11-13 Single Family Traditional 3723 Nutwood Lane Spring, TX 77389 $199,900 1,777 sq. ft. 6,534 sq. ft. $112
2018-11-13 Single Family Traditional 9206 Prairie Trails Drive Spring, TX 77379 $159,900 1,899 sq. ft. 6,098 sq. ft. $84
2018-11-13 Single Family Traditional 18706 Yorkshire Manor Court Spring, TX 77379 $549,000 4,820 sq. ft. 11,326 sq. ft. $114
2018-11-13 Single Family Traditional 4527 Carmel River Lane Spring, TX 77388 $349,105 2,808 sq. ft. $124
2018-11-13 Single Family Traditional 16810 Valley Palms Drive Spring, TX 77379 $215,000 2,240 sq. ft. 7,405 sq. ft. $96
2018-11-13 Single Family Traditional 31755 Summit Springs Lane Spring, TX 77386 $289,900 2,136 sq. ft. 8,712 sq. ft. $136
2018-11-13 Single Family Traditional 3858 Enchanted Timbers Lane Spring, TX 77386 $299,499 2,080 sq. ft. 9,148 sq. ft. $144
2018-11-13 Single Family Traditional 383 Connemara Drive Spring, TX 77382 $275,000 1,756 sq. ft. 5,663 sq. ft. $157
2018-11-13 Single Family Traditional 7302 Dayhill Drive Spring, TX 77379 $569,000 3,360 sq. ft. 17,424 sq. ft. $169
2018-11-13 Single Family Traditional 17710 Terranova West Drive Spring, TX 77379 $225,000 2,683 sq. ft. 9,148 sq. ft. $84
2018-11-12 Single Family Ranch 29411 Legends Bluff Drive Spring, TX 77386 $189,900 1,624 sq. ft. 8,276 sq. ft. $117
2018-11-12 Single Family Traditional 22314 Daniel Oak Circle Spring, TX 77389 $160,000 1,488 sq. ft. 6,534 sq. ft. $108
2018-11-12 Single Family Mediterranean 6502 Centre Place Circle Spring, TX 77379 $849,996 7,965 sq. ft. 26,572 sq. ft. $107
2018-11-12 Single Family Mediterranean 38 Lake Sterling Gate Drive Spring, TX 77379 $1,175,000 6,705 sq. ft. 19,602 sq. ft. $175
2018-11-12 Single Family Traditional 9710 Rocket Cress Court Spring, TX 77379 $319,290 3,105 sq. ft. $103
2018-11-12 Single Family Traditional 23323 Earlmist Drive Spring, TX 77373 $155,000 1,698 sq. ft. 7,405 sq. ft. $91
2018-11-12 Single Family Traditional 1018 Casting Springs Way Spring, TX 77373 $215,000 2,314 sq. ft. 7,841 sq. ft. $93
2018-11-12 Single Family Traditional 622 Cypresswood Drive Spring, TX 77373 $164,900 1,682 sq. ft. 13,504 sq. ft. $98
2018-11-12 Single Family Traditional 6222 Rustygate Drive Spring, TX 77373 $137,000 1,400 sq. ft. 6,970 sq. ft. $98
2018-11-12 Single Family Traditional 20902 Bradley Gardens Spring, TX 77379 $339,224 2,727 sq. ft. 8,276 sq. ft. $124
2018-11-12 Single Family Contemporary/Modern 20602 Alfonso Court Spring, TX 77388 $218,900 2,026 sq. ft. 3,049 sq. ft. $108
2018-11-12 Single Family Traditional 31026 Harvest Meadow Spring, TX 77386 $441,627 3,560 sq. ft. 7,405 sq. ft. $124
2018-11-12 Single Family Traditional 6026 Pin Oak Place Spring, TX 77379 $285,000 3,273 sq. ft. 9,148 sq. ft. $87
2018-11-12 Single Family Traditional 6206 Graff Net Drive Spring, TX 77379 $374,900 3,964 sq. ft. 10,019 sq. ft. $95
2018-11-11 Single Family Traditional 3610 Vashon Lane Spring, TX 77388 $414,900 3,501 sq. ft. 13,068 sq. ft. $119
2018-11-11 Single Family Traditional 5511 Lacreek Lane Spring, TX 77379 $210,000 2,415 sq. ft. 9,583 sq. ft. $87
2018-11-11 Single Family Traditional 5010 Monteith Drive Spring, TX 77373 $110,000 1,526 sq. ft. 6,098 sq. ft. $72
2018-11-11 Single Family Ranch 6002 Flagg Ranch Court Spring, TX 77388 $205,000 2,041 sq. ft. 7,405 sq. ft. $100
2018-11-11 Single Family Traditional 28826 Red River Loop Loop Spring, TX 77386 $134,900 1,134 sq. ft. 7,405 sq. ft. $119
2018-11-11 Single Family Traditional 6610 Centre Place Circle Spring, TX 77379 $774,999 6,410 sq. ft. 33,977 sq. ft. $121
2018-11-11 Single Family Traditional 31262 Shady Arbor Lane Spring, TX 77386 $400,000 3,236 sq. ft. 11,326 sq. ft. $124
2018-11-10 Single Family Ranch 4415 Mccleester Drive Spring, TX 77373 $135,000 1,284 sq. ft. 6,534 sq. ft. $105
2018-11-10 Single Family Traditional 5106 Binion Forest Lane Spring, TX 77389 $284,900 2,727 sq. ft. 5,227 sq. ft. $104
2018-11-10 Single Family Traditional 3151 Beacon Grove Street Spring, TX 77389 $165,000 1,480 sq. ft. 6,098 sq. ft. $111
2018-11-10 Single Family Traditional 3 Chamberlain Court Spring, TX 77382 $1,200,000 5,453 sq. ft. 17,860 sq. ft. $220
2018-11-10 Single Family Traditional 17802 Comoro Lane Spring, TX 77379 $299,900 3,447 sq. ft. 13,939 sq. ft. $87
2018-11-10 Single Family Traditional 4011 Ashland Woods Spring, TX 77386 $620,663 4,387 sq. ft. $141
2018-11-10 Single Family Mediterranean 28030 Drifters Bend Spring, TX 77386 $429,183 3,391 sq. ft. $127
2018-11-10 Single Family Traditional 16223 Southampton Drive Spring, TX 77379 $215,000 2,358 sq. ft. 9,583 sq. ft. $91
2018-11-10 Single Family Traditional 2006 Deer Valley Drive Spring, TX 77373 $172,000 1,956 sq. ft. 10,019 sq. ft. $88
2018-11-10 Single Family Mediterranean 6903 Pennwell Drive Spring, TX 77389 $1,030,000 5,007 sq. ft. 16,988 sq. ft. $206
2018-11-10 Single Family Traditional 4907 Meadowfox Place Spring, TX 77389 $144,990 1,626 sq. ft. 4,356 sq. ft. $89
2018-11-09 Single Family Traditional 27071 Balsam Fir Circle Spring, TX 77386 $814,900 5,011 sq. ft. 47,916 sq. ft. $163
2018-11-09 Single Family Traditional 4911 Edinston Place Spring, TX 77388 $195,000 2,606 sq. ft. 6,098 sq. ft. $75
2018-11-09 Single Family Traditional 2610 Brown Hill Drive Spring, TX 77373 $157,000 1,568 sq. ft. 8,276 sq. ft. $100
2018-11-09 Single Family Traditional 16815 Butteroak Drive Spring, TX 77379 $219,900 2,276 sq. ft. 9,583 sq. ft. $97
2018-11-09 Single Family Traditional 26023 Richards Road Spring, TX 77386 $210,000 2,207 sq. ft. 6,970 sq. ft. $95
2018-11-09 Single Family Traditional 2802 Lockeridge Oaks Drive Spring, TX 77386 $182,000 1,810 sq. ft. 6,098 sq. ft. $101
2018-11-09 Single Family Traditional 28107 Jillian Oaks Lane Spring, TX 77386 $399,000 3,412 sq. ft. 11,761 sq. ft. $117
2018-11-09 Single Family Traditional 54 Bethany Bend Circle Spring, TX 77382 $349,900 2,560 sq. ft. 7,405 sq. ft. $137
2018-11-09 Single Family Traditional 9407 Autumn Joy Drive Spring, TX 77379 $349,900 3,478 sq. ft. 8,712 sq. ft. $101
2018-11-09 Single Family Traditional 6002 Fairidge Court Spring, TX 77389 $279,900 2,509 sq. ft. 13,504 sq. ft. $112
2018-11-09 Single Family Traditional 2301 Garden Square Path Spring, TX 77386 $212,000 1,585 sq. ft. $134
2018-11-09 Single Family Traditional 3306 Rose Trace Drive Spring, TX 77386 $299,900 3,753 sq. ft. 7,841 sq. ft. $80
2018-11-09 Single Family Traditional 31 Cove View Trail Spring, TX 77389 $699,000 4,439 sq. ft. 13,504 sq. ft. $157
2018-11-09 Single Family Traditional 7922 Tizerton Court Spring, TX 77379 $250,000 3,131 sq. ft. 7,405 sq. ft. $80
2018-11-09 Single Family Traditional 3202 Chaparral Way Spring, TX 77380 $215,000 1,965 sq. ft. 11,761 sq. ft. $109
2018-11-08 Single Family Traditional 7626 Candlelight Park Lane Spring, TX 77379 $273,000 2,155 sq. ft. 8,276 sq. ft. $127
2018-11-08 Single Family Traditional 20218 Rosegold Way Spring, TX 77379 $413,555 3,304 sq. ft. $125
2018-11-08 Single Family Traditional 8507 Marchelle Lane Spring, TX 77379 $315,000 4,023 sq. ft. 9,583 sq. ft. $78
2018-11-08 Single Family Traditional 30714 Lily Trace Court Spring, TX 77386 $279,000 2,631 sq. ft. 7,405 sq. ft. $106
2018-11-08 Single Family Traditional 3513 Brian Valley Court Spring, TX 77386 $293,090 2,413 sq. ft. $121
2018-11-08 Single Family Traditional 6114 Menor Crest Drive Spring, TX 77388 $225,000 1,978 sq. ft. 5,663 sq. ft. $114
2018-11-08 Single Family Traditional 9602 Crail Drive Spring, TX 77379 $179,900 1,928 sq. ft. 10,890 sq. ft. $93
2018-11-08 Single Family English 2531 Spring Creek Drive Spring, TX 77373 $464,500 3,412 sq. ft. 64,904 sq. ft. $136
2018-11-08 Single Family Traditional 19102 Lost Mine Trail Spring, TX 77388 $339,000 3,206 sq. ft. 8,276 sq. ft. $106
2018-11-08 Single Family Traditional 4202 Enchantedgate Drive Spring, TX 77373 $169,900 1,643 sq. ft. 8,276 sq. ft. $103
2018-11-08 Single Family Traditional 1522 Leedscastle Manor Spring, TX 77379 $337,500 2,774 sq. ft. 8,712 sq. ft. $122
2018-11-08 Single Family Traditional 20323 Louetta Reach Drive Spring, TX 77388 $209,900 2,393 sq. ft. 6,098 sq. ft. $88
2018-11-08 Single Family Traditional 24203 Creekview Drive Spring, TX 77389 $380,000 3,062 sq. ft. 13,068 sq. ft. $124
2018-11-08 Single Family Traditional 28527 Connordale Lane Spring, TX 77386 $255,000 1,971 sq. ft. 6,970 sq. ft. $129
2018-11-08 Single Family Traditional 29523 Water Willow Trace Spring, TX 77386 $255,665 1,843 sq. ft. $139
2018-11-08 Single Family Split Level; Traditional 25202 Oak Villa Drive Spring, TX 77389 $272,000 3,176 sq. ft. 8,276 sq. ft. $86
2018-11-08 Single Family Traditional 6407 Pinyon Trail Drive Spring, TX 77389 $279,900 2,367 sq. ft. 7,405 sq. ft. $118
2018-11-08 Single Family Traditional 62 Florham Park Drive Spring, TX 77379 $850,000 4,341 sq. ft. 44,867 sq. ft. $196
2018-11-08 Single Family Mediterranean 7010 Tea Olive Court Spring, TX 77389 $425,000 4,032 sq. ft. 12,197 sq. ft. $105
2018-11-08 Single Family Traditional 29667 Yaupon Shore Spring, TX 77386 $370,822 2,752 sq. ft. 7,405 sq. ft. $135
2018-11-08 Single Family Traditional 29638 Yaupon Shore Spring, TX 77386 $350,797 2,752 sq. ft. 6,534 sq. ft. $127
2018-11-08 Single Family Traditional 20810 Crestpoint Spring, TX 77379 $317,342 2,567 sq. ft. 7,841 sq. ft. $124
2018-11-08 Single Family Traditional 29614 Yaupon Shore Spring, TX 77386 $354,883 2,752 sq. ft. 6,970 sq. ft. $129
2018-11-08 Single Family Traditional 3795 Lake Bend Shore Spring, TX 77386 $349,975 2,752 sq. ft. 6,534 sq. ft. $127
2018-11-08 Single Family Traditional 18619 Roslyn Springs Drive Spring, TX 77388 $355,000 3,120 sq. ft. 7,405 sq. ft. $114
2018-11-08 Single Family Traditional 21918 Avalon Queen Drive Spring, TX 77379 $262,000 2,773 sq. ft. 6,970 sq. ft. $94
2018-11-08 Single Family Traditional 5323 Brookway Willow Drive Spring, TX 77379 $295,000 3,577 sq. ft. 7,841 sq. ft. $82
2018-11-08 Single Family Traditional 23114 Ammick Court Spring, TX 77389 $269,500 2,843 sq. ft. 13,504 sq. ft. $95
2018-11-08 Single Family Traditional 9614 Edgeloch Drive Spring, TX 77379 $245,000 2,415 sq. ft. 6,970 sq. ft. $101
2018-11-08 Single Family Traditional 911 Pinecreek Point Court Spring, TX 77373 $172,000 1,683 sq. ft. 5,227 sq. ft. $102
2018-11-08 Single Family Traditional 2102 Rolling Glen Drive Spring, TX 77373 $128,000 1,239 sq. ft. 23,087 sq. ft. $103
2018-11-08 Single Family Traditional 22211 Bridgebrook Drive Spring, TX 77373 $110,000 1,154 sq. ft. 6,970 sq. ft. $95
2018-11-07 Single Family Traditional 2630 Springstone Drive Spring, TX 77386 $217,000 2,348 sq. ft. 6,970 sq. ft. $92
2018-11-07 Single Family Mediterranean; Other Style 7614 Noah Lane Spring, TX 77379 $697,900 4,386 sq. ft. 15,682 sq. ft. $159
2018-11-07 Single Family Traditional 7706 Windhill Drive Spring, TX 77379 $294,995 2,044 sq. ft. 7,405 sq. ft. $144
2018-11-07 Single Family Traditional 17623 Fawn River Circle Spring, TX 77379 $219,990 1,926 sq. ft. 8,712 sq. ft. $114
2018-11-07 Single Family Traditional 31212 Liberty Knoll Lane Spring, TX 77386 $249,990 1,857 sq. ft. 6,534 sq. ft. $135
2018-11-07 Single Family Traditional 21734 Grassy Hill Lane Spring, TX 77388 $159,900 1,716 sq. ft. 3,485 sq. ft. $93
2018-11-07 Single Family Traditional 6103 Hickorycrest Drive Spring, TX 77389 $317,000 3,077 sq. ft. 16,117 sq. ft. $103
2018-11-07 Single Family Traditional 2002 Mercoal Drive Spring, TX 77386 $237,000 2,339 sq. ft. 8,712 sq. ft. $101
2018-11-07 Single Family Other Style; Ranch; Traditional 3911 Juniper Lane Spring, TX 77389 $149,900 1,964 sq. ft. 74,052 sq. ft. $76
2018-11-07 Single Family Traditional 18819 Cypress Chateau Drive Spring, TX 77388 $349,900 3,651 sq. ft. 9,583 sq. ft. $96
2018-11-07 Single Family Traditional 3519 Blue Cypress Drive Spring, TX 77388 $330,000 2,736 sq. ft. 22,216 sq. ft. $121
2018-11-07 Single Family Traditional 29832 Woodsons Edge Way Spring, TX 77386 $236,565 1,976 sq. ft. 5,106 sq. ft. $120
2018-11-07 Single Family Traditional 3433 Stablewood Grove Lane Spring, TX 77386 $255,000 1,857 sq. ft. $137
2018-11-07 Single Family Traditional 3449 Stablewood Grove Lane Spring, TX 77386 $245,000 1,620 sq. ft. $151
2018-11-07 Single Family Traditional 29852 Woodsons Edge Way Spring, TX 77386 $262,615 2,574 sq. ft. 5,239 sq. ft. $102
2018-11-07 Single Family Traditional 27626 Long Cliff Lane Spring, TX 77386 $561,776 4,115 sq. ft. $137
2018-11-07 Single Family Traditional 18218 Stockton Springs Drive Spring, TX 77379 $425,000 4,044 sq. ft. 10,454 sq. ft. $105
2018-11-06 Single Family Traditional 21842 Mossy Field Lane Spring, TX 77388 $181,000 2,301 sq. ft. 3,049 sq. ft. $79
2018-11-06 Single Family Contemporary/Modern 25715 Muirfield Bend Court Spring, TX 77389 $519,900 3,078 sq. ft. 6,098 sq. ft. $169
2018-11-06 Single Family Contemporary/Modern 26115 Brickhill Drive Spring, TX 77389 $326,900 2,846 sq. ft. 6,098 sq. ft. $115
2018-11-06 Single Family Traditional 7915 Aleta Drive Spring, TX 77379 $260,000 3,521 sq. ft. 10,454 sq. ft. $74
2018-11-06 Single Family Traditional 3542 Bennett Trails Drive Spring, TX 77386 $270,000 2,850 sq. ft. 5,227 sq. ft. $95
2018-11-06 Single Family Traditional 21423 Snow Goose Court Spring, TX 77388 $205,000 2,222 sq. ft. 5,663 sq. ft. $92
2018-11-06 Single Family Traditional 4930 Glendower Drive Spring, TX 77373 $139,900 1,558 sq. ft. 6,534 sq. ft. $90
2018-11-06 Single Family Traditional 4308 Imperial Gardens Drive Spring, TX 77386 $299,990 2,774 sq. ft. 7,405 sq. ft. $108
2018-11-06 Single Family Traditional 27982 Clear Pines Drive Spring, TX 77386 $249,990 1,674 sq. ft. 6,970 sq. ft. $149
2018-11-06 Single Family Traditional 1412 Sue Ann Lane Spring, TX 77373 $275,000 2,070 sq. ft. 47,480 sq. ft. $133
2018-11-06 Single Family Traditional 2310 Fern Lacy Drive Spring, TX 77388 $215,000 2,152 sq. ft. 6,970 sq. ft. $100
2018-11-06 Single Family Traditional 7811 Theisswood Road Spring, TX 77379 $235,000 3,316 sq. ft. 11,326 sq. ft. $71
2018-11-06 Single Family Traditional 20923 Bayeux Lane Spring, TX 77388 $250,000 3,171 sq. ft. 6,534 sq. ft. $79
2018-11-06 Single Family Traditional 24006 Lestergate Drive Spring, TX 77373 $178,900 2,109 sq. ft. 6,534 sq. ft. $85
2018-11-06 Single Family Traditional 10411 Dunbar Point Court Spring, TX 77379 $549,999 4,625 sq. ft. 10,890 sq. ft. $119
2018-11-06 Single Family Colonial 21723 Debray Drive Spring, TX 77388 $204,999 2,122 sq. ft. 6,098 sq. ft. $97
2018-11-06 Single Family Traditional 20018 Rosswood Lane Spring, TX 77388 $242,500 2,405 sq. ft. 6,970 sq. ft. $101
2018-11-06 Single Family Traditional 24722 Timberland Path Drive Spring, TX 77373 $190,000 3,103 sq. ft. 11,761 sq. ft. $61
2018-11-06 Single Family Traditional 3226 Dappled Vale Trail Spring, TX 77373 $239,997 3,260 sq. ft. 6,098 sq. ft. $74
2018-11-05 Single Family Traditional 16014 Gore Grass Court Spring, TX 77379 $364,990 3,573 sq. ft. 10,019 sq. ft. $102
2018-11-05 Single Family Traditional 211 North Hill Drive Spring, TX 77388 $207,400 2,634 sq. ft. 10,454 sq. ft. $79
2018-11-05 Single Family Traditional 8122 Hardy Elm Street Spring, TX 77379 $234,900 2,676 sq. ft. 5,663 sq. ft. $88
2018-11-05 Single Family Traditional 19726 Holly Walk Spring, TX 77388 $225,000 2,519 sq. ft. 9,148 sq. ft. $89
2018-11-05 Single Family Ranch 29209 Fox Run Blvd Boulevard Spring, TX 77386 $165,000 2,003 sq. ft. 8,276 sq. ft. $82
2018-11-05 Single Family Traditional 25707 Heritage Maple Drive Spring, TX 77389 $544,000 4,158 sq. ft. 10,890 sq. ft. $131
2018-11-05 Single Family Traditional 31027 Oak Forest Hollow Lane Spring, TX 77386 $365,000 3,693 sq. ft. 10,890 sq. ft. $99
2018-11-05 Single Family English; Ranch; Traditional 8411 Burwood Park Drive Spring, TX 77379 $229,999 2,464 sq. ft. 10,019 sq. ft. $93
2018-11-05 Single Family Contemporary/Modern 6703 Seaton Valley Drive Spring, TX 77379 $268,900 2,988 sq. ft. 10,019 sq. ft. $90
2018-11-05 Single Family Ranch 2119 Rolling Glen Drive Spring, TX 77373 $198,000 1,805 sq. ft. 7,405 sq. ft. $110
2018-11-05 Single Family Traditional 20134 Hachita Circle Spring, TX 77379 $575,045 3,995 sq. ft. $144
2018-11-05 Single Family Ranch 24351 Lenze Road Spring, TX 77389 $395,000 2,326 sq. ft. 54,014 sq. ft. $170
2018-11-05 Single Family Traditional 6215 Darby Way Spring, TX 77389 $419,900 3,550 sq. ft. 16,553 sq. ft. $118
2018-11-05 Single Family Traditional 16019 Kempton Park Drive Spring, TX 77379 $342,300 3,305 sq. ft. 8,276 sq. ft. $104
2018-11-04 Single Family Traditional 7214 Mciver Drive Spring, TX 77389 $268,000 2,751 sq. ft. 4,792 sq. ft. $97
2018-11-04 Single Family Traditional 927 Northgate Springs Drive Spring, TX 77373 $199,900 2,027 sq. ft. 5,227 sq. ft. $99
2018-11-04 Single Family Traditional 30511 Lavender Trace Drive Spring, TX 77386 $190,000 1,632 sq. ft. 6,098 sq. ft. $116
2018-11-03 Single Family Traditional 28217 Bennett Pass Spring, TX 77386 $339,199 2,392 sq. ft. 6,534 sq. ft. $142
2018-11-03 Single Family Traditional 29303 Atherstone Street Spring, TX 77386 $211,900 2,177 sq. ft. 8,712 sq. ft. $97
2018-11-03 Single Family Traditional 17907 Mantana Drive Spring, TX 77388 $199,900 2,474 sq. ft. 9,148 sq. ft. $81
2018-11-03 Single Family Traditional 9607 Brackenton Crest Drive Spring, TX 77379 $215,000 1,940 sq. ft. 6,534 sq. ft. $111
2018-11-03 Single Family Traditional 22527 Spring Crossing Drive Spring, TX 77373 $193,900 2,403 sq. ft. 4,792 sq. ft. $81
2018-11-03 Single Family Traditional 141 Tupelo Green Circle Spring, TX 77389 $473,000 3,999 sq. ft. 8,712 sq. ft. $118
2018-11-03 Single Family Ranch 3219 Ciderwood Drive Spring, TX 77373 $130,000 1,521 sq. ft. 6,534 sq. ft. $85
2018-11-03 Single Family Traditional 3102 Vincent Crossing Drive Spring, TX 77386 $379,900 4,038 sq. ft. 11,326 sq. ft. $94
2018-11-03 Single Family Traditional 18007 Woodgum Drive Spring, TX 77388 $130,000 1,801 sq. ft. 7,405 sq. ft. $72
2018-11-03 Single Family Mediterranean 16122 Wimbledon Forest Drive Spring, TX 77379 $485,000 5,517 sq. ft. 12,197 sq. ft. $88
2018-11-03 Single Family Traditional 5327 Brookway Willow Drive Spring, TX 77379 $334,900 3,494 sq. ft. 6,534 sq. ft. $96
2018-11-03 Single Family Traditional 6203 Agassi Ace Court Court Spring, TX 77379 $248,900 2,507 sq. ft. 15,682 sq. ft. $99
2018-11-03 Single Family Traditional 3422 Blue Cypress Drive Spring, TX 77388 $191,000 2,742 sq. ft. 10,019 sq. ft. $70
2018-11-02 Single Family Traditional 18707 Glenn Haven Estates Drive Spring, TX 77379 $385,000 3,827 sq. ft. 15,682 sq. ft. $101
2018-11-02 Single Family Ranch 6015 Coachgate Drive Spring, TX 77373 $164,993 1,756 sq. ft. 6,534 sq. ft. $94
2018-11-02 Single Family Other Style 8308 Thora Lane Spring, TX 77379 $2,950,000 11,385 sq. ft. 45,738 sq. ft. $259
2018-11-02 Single Family Traditional 25402 Lancaster Pine Drive Spring, TX 77389 $365,000 3,315 sq. ft. 7,405 sq. ft. $110
2018-11-02 Single Family Traditional 8310 Pheasant Glen Drive Spring, TX 77379 $269,000 3,113 sq. ft. 9,583 sq. ft. $86
2018-11-02 Single Family Traditional 19314 Young Oak Street Spring, TX 77379 $229,995 1,977 sq. ft. 6,534 sq. ft. $116
2018-11-02 Single Family Traditional 30315 Nanton Drive Spring, TX 77386 $204,900 2,620 sq. ft. 18,295 sq. ft. $78
2018-11-02 Single Family Traditional 30803 Coral Park Drive Spring, TX 77386 $215,000 2,050 sq. ft. 15,246 sq. ft. $105
2018-11-02 Single Family Traditional 18731 White Candle Drive Spring, TX 77388 $235,000 2,898 sq. ft. 9,583 sq. ft. $81
2018-11-02 Single Family Ranch 16442 Kleinwood Drive Spring, TX 77379 $188,450 2,143 sq. ft. 9,148 sq. ft. $88
2018-11-02 Single Family Traditional 22902 Summer Pine Lane Spring, TX 77373 $159,000 1,574 sq. ft. 15,246 sq. ft. $101
2018-11-02 Single Family Other Style 29746 Meridian Hill Drive Spring, TX 77386 $155,000 1,828 sq. ft. 3,485 sq. ft. $85
2018-11-02 Single Family Traditional 29744 Meridian Hill Drive Spring, TX 77386 $155,000 1,828 sq. ft. 3,485 sq. ft. $85
2018-11-02 Single Family Traditional 7811 Wooded Way Drive Spring, TX 77389 $625,000 5,231 sq. ft. 34,412 sq. ft. $119
2018-11-02 Single Family Contemporary/Modern 10809 Colony Wood Pl Spring, TX 77380 $319,900 2,178 sq. ft. 11,761 sq. ft. $147
2018-11-02 Single Family Other Style 8306 Misty Mountain Trail Lane Spring, TX 77389 $287,900 2,894 sq. ft. 6,970 sq. ft. $99
2018-11-02 Single Family Traditional 16515 Lapis River Drive Spring, TX 77379 $229,000 2,360 sq. ft. 5,663 sq. ft. $97
2018-11-02 Single Family Traditional 6602 Castle Pine Lane Spring, TX 77379 $223,000 2,799 sq. ft. 11,761 sq. ft. $80
2018-11-02 Single Family Traditional 4339 Medina River Loop Spring, TX 77386 $172,500 1,312 sq. ft. 10,454 sq. ft. $131
2018-11-02 Single Family Traditional 26119 White Sage Cove Lane Spring, TX 77386 $327,500 2,921 sq. ft. 7,405 sq. ft. $112
2018-11-02 Single Family Other Style 17031 Louetta Green Dr Drive Spring, TX 77379 $190,000 1,870 sq. ft. 6,098 sq. ft. $102
2018-11-02 Single Family Traditional 29023 Raestone Street Spring, TX 77386 $158,500 1,760 sq. ft. 6,534 sq. ft. $90
2018-11-02 Single Family Ranch; Traditional 29231 Legends Bluff Drive Spring, TX 77386 $185,000 2,008 sq. ft. 5,227 sq. ft. $92
2018-11-02 Single Family Traditional 24102 Lone Elm Drive Spring, TX 77373 $154,500 1,765 sq. ft. 6,970 sq. ft. $88
2018-11-02 Single Family Traditional 23701 Tatum Bend Lane Spring, TX 77386 $399,000 3,156 sq. ft. 14,375 sq. ft. $126
2018-11-02 Single Family Traditional 6711 Briarfield Dr Drive Spring, TX 77379 $265,000 2,772 sq. ft. 20,473 sq. ft. $96
2018-11-02 Single Family Traditional 6914 Emerald Pool Lane Spring, TX 77379 $249,900 2,520 sq. ft. 6,970 sq. ft. $99
2018-11-02 Single Family Traditional 29202 Spring Mist Drive Spring, TX 77386 $185,000 2,029 sq. ft. 8,276 sq. ft. $91
2018-11-02 Single Family Traditional 19506 Sanctuary Rose Bud Lane Spring, TX 77388 $410,000 3,685 sq. ft. 10,454 sq. ft. $111
2018-11-02 Single Family Traditional 19402 Enchantington Circle Spring, TX 77388 $149,900 1,938 sq. ft. 12,632 sq. ft. $77
2018-11-01 Single Family Traditional 3509 Brian Valley Court Spring, TX 77386 $301,790 2,419 sq. ft. $125
2018-11-01 Single Family Ranch; Traditional 27302 Benders Landing Boulevard Spring, TX 77386 $1,100,000 5,447 sq. ft. 48,352 sq. ft. $202
2018-11-01 Single Family Traditional 7406 Kearney Hill Lane Spring, TX 77389 $377,536 2,027 sq. ft. $186
2018-11-01 Single Family Traditional 27906 Spearhead Ridge Drive Spring, TX 77386 $275,940 2,047 sq. ft. $135
2018-11-01 Single Family Traditional 4452 Lone Alcove Drive Spring, TX 77386 $240,340 1,838 sq. ft. $131
2018-11-01 Single Family Traditional 4549 New Country Drive Spring, TX 77386 $250,866 1,620 sq. ft. $155
2018-11-01 Single Family Traditional 902 Brady Bend Drive Spring, TX 77373 $189,900 1,958 sq. ft. 6,970 sq. ft. $97
2018-11-01 Single Family Traditional 25010 Arcola Court Spring, TX 77389 $595,000 3,895 sq. ft. 10,454 sq. ft. $153
2018-11-01 Single Family Traditional 4710 Preserve Park Drive Spring, TX 77389 $330,900 3,042 sq. ft. 8,276 sq. ft. $109
2018-11-01 Single Family Traditional 25810 Clear Springs Way Spring, TX 77373 $299,900 3,371 sq. ft. 7,841 sq. ft. $89
2018-11-01 Single Family Traditional 25246 Piney Heights Lane Spring, TX 77389 $326,000 2,873 sq. ft. 10,019 sq. ft. $113
2018-11-01 Single Family Other Style 1706 Calmar Drive Spring, TX 77386 $235,000 2,538 sq. ft. 9,148 sq. ft. $93
2018-11-01 Single Family Traditional 4715 Broken Elm Drive Spring, TX 77388 $154,900 1,858 sq. ft. 7,405 sq. ft. $83
2018-11-01 Single Family Traditional 522 Willow Springs Place Spring, TX 77373 $325,000 3,546 sq. ft. 11,326 sq. ft. $92
2018-11-01 Single Family Traditional 6827 Summer Bridge Lane Spring, TX 77379 $249,900 2,728 sq. ft. 7,841 sq. ft. $92
2018-11-01 Single Family Contemporary/Modern; Traditional 6030 Craigway Road Spring, TX 77389 $329,500 2,926 sq. ft. 16,988 sq. ft. $113
2018-11-01 Single Family Traditional 25230 Auburn Bend Drive Spring, TX 77389 $325,000 2,849 sq. ft. 8,276 sq. ft. $114
2018-11-01 Single Family Traditional 3314 Shadowcrest Lane Spring, TX 77380 $205,000 1,452 sq. ft. 12,197 sq. ft. $141
2018-11-01 Single Family Traditional 4815 Preserve Creek Court Spring, TX 77389 $317,000 2,752 sq. ft. 7,405 sq. ft. $115
2018-11-01 Single Family Traditional 1923 Vale Brook Drive Spring, TX 77373 $200,000 2,320 sq. ft. 6,098 sq. ft. $86
2018-11-01 Single Family Traditional 6714 Augusta Pines Parkway Spring, TX 77389 $740,000 4,755 sq. ft. 19,166 sq. ft. $156
2018-11-01 Single Family Ranch 47 Jaspers Place Spring, TX 77389 $379,500 2,466 sq. ft. 13,504 sq. ft. $154
2018-11-01 Single Family Traditional 28854 Llano River Loop Spring, TX 77386 $175,000 1,890 sq. ft. 6,534 sq. ft. $93
2018-10-31 Single Family Traditional 131 Cove View Trail Spring, TX 77389 $775,000 4,434 sq. ft. 20,473 sq. ft. $175
2018-10-31 Single Family Contemporary/Modern; Traditional 5240 Lynngate Drive Spring, TX 77373 $125,000 1,392 sq. ft. 4,356 sq. ft. $90
2018-10-31 Single Family Traditional 4034 Cypress Hill Drive Spring, TX 77388 $268,000 3,072 sq. ft. 9,148 sq. ft. $87
2018-10-31 Single Family Traditional 9323 Edgeloch Drive Spring, TX 77379 $205,000 1,575 sq. ft. 6,098 sq. ft. $130
2018-10-31 Single Family Traditional 25531 Tuckahoe Lane Spring, TX 77373 $165,000 1,964 sq. ft. 16,553 sq. ft. $84
2018-10-31 Single Family Traditional 5818 Ashmere Lane Spring, TX 77379 $269,900 3,209 sq. ft. 9,148 sq. ft. $84
2018-10-31 Single Family Traditional 29403 Sedgefield Street Spring, TX 77386 $169,500 1,480 sq. ft. 6,534 sq. ft. $115
2018-10-31 Single Family Traditional 4331 Croft Creek Drive Spring, TX 77386 $410,900 2,934 sq. ft. 7,405 sq. ft. $140
2018-10-31 Single Family Traditional 29502 Water Willow Trace Drive Spring, TX 77386 $288,000 2,212 sq. ft. $130
2018-10-31 Single Family French 3327 Candlepine Drive Spring, TX 77388 $202,900 2,547 sq. ft. 6,098 sq. ft. $80
2018-10-31 Single Family Traditional 4519 Reynaldo Drive Spring, TX 77373 $130,000 1,474 sq. ft. 6,098 sq. ft. $88
2018-10-31 Single Family Traditional 23007 Southern Brook Trail Spring, TX 77389 $399,999 3,196 sq. ft. 15,682 sq. ft. $125
2018-10-31 Single Family Traditional 4710 Misty Ranch Drive Spring, TX 77386 $264,990 2,202 sq. ft. 6,534 sq. ft. $120
2018-10-31 Single Family Traditional 23923 Red Sky Drive Spring, TX 77373 $134,000 1,260 sq. ft. 7,841 sq. ft. $106
2018-10-31 Single Family Traditional 4403 Sanctuary Halls Spring, TX 77388 $409,000 3,560 sq. ft. 15,682 sq. ft. $115
2018-10-31 Single Family Traditional 4710 Verbena Valley Way Spring, TX 77388 $317,265 2,416 sq. ft. $131
2018-10-31 Single Family Contemporary/Modern 21326 Bella Jess Drive Spring, TX 77379 $167,900 1,607 sq. ft. 5,663 sq. ft. $104
2018-10-31 Single Family Traditional 23819 Farm Hill Road Spring, TX 77373 $155,000 1,584 sq. ft. 8,712 sq. ft. $98
2018-10-31 Single Family Traditional 2327 Floral Ridge Drive Spring, TX 77388 $215,000 2,158 sq. ft. 6,098 sq. ft. $100
2018-10-31 Single Family Traditional 2503 Spring Lily Court Spring, TX 77373 $179,900 1,415 sq. ft. 5,663 sq. ft. $127
2018-10-30 Single Family Traditional 20406 Brightonwood Lane Spring, TX 77379 $580,000 4,953 sq. ft. 12,197 sq. ft. $117
2018-10-30 Single Family Traditional 17431 Memorial Crest Drive Spring, TX 77379 $310,000 3,980 sq. ft. 8,712 sq. ft. $78
2018-10-30 Single Family Traditional 16810 Windypine Drive Spring, TX 77379 $295,000 3,313 sq. ft. 11,326 sq. ft. $89
2018-10-30 Single Family Traditional 3003 Trinity Pass Court Spring, TX 77373 $228,000 2,950 sq. ft. 12,197 sq. ft. $77
2018-10-30 Single Family Traditional 4102 Donalbain Drive Spring, TX 77373 $149,900 1,245 sq. ft. 6,970 sq. ft. $120
2018-10-30 Single Family Traditional 90 Victoriana Circle Spring, TX 77389 $390,000 2,586 sq. ft. 8,276 sq. ft. $151
2018-10-30 Single Family Traditional 23931 Spring Dane Drive Spring, TX 77373 $211,000 2,400 sq. ft. 6,970 sq. ft. $88
2018-10-30 Single Family Traditional 31515 Morgan Hill Court Spring, TX 77386 $284,900 2,881 sq. ft. 8,276 sq. ft. $99
2018-10-30 Single Family Traditional 3907 Marywood Drive Spring, TX 77388 $159,900 1,549 sq. ft. 7,405 sq. ft. $103
2018-10-30 Single Family Traditional 16338 Sir William Drive Spring, TX 77379 $182,000 2,286 sq. ft. 2,178 sq. ft. $80
2018-10-30 Single Family Traditional 47 Torch Pine Circle Spring, TX 77381 $199,990 2,000 sq. ft. 8,712 sq. ft. $100
2018-10-30 Single Family Traditional 29411 Stapleford Street Spring, TX 77386 $100,000 1,349 sq. ft. 6,970 sq. ft. $74
2018-10-30 Single Family Other Style 2609 Spring Cypress Road Spring, TX 77388 $675,000 1,872 sq. ft. 47,916 sq. ft. $361
2018-10-30 Single Family Traditional 51 Arbor Camp Circle Spring, TX 77389 $389,000 3,111 sq. ft. 7,405 sq. ft. $125
2018-10-30 Single Family Traditional 3403 Bristlecone Trail Spring, TX 77380 $195,000 1,976 sq. ft. 10,890 sq. ft. $99
2018-10-30 Single Family Traditional 2337 Garden Square Path Spring, TX 77386 $227,905 1,776 sq. ft. $128
2018-10-30 Single Family Traditional 5810 Stratton Woods Drive Spring, TX 77389 $599,950 4,764 sq. ft. 11,761 sq. ft. $126
2018-10-30 Single Family Traditional 24019 Pinecreek Pt Point Spring, TX 77373 $190,000 2,736 sq. ft. 6,098 sq. ft. $69
2018-10-29 Single Family Traditional 23846 Creek Wood Drive Spring, TX 77389 $469,000 3,333 sq. ft. 25,700 sq. ft. $141
2018-10-29 Single Family Traditional 5202 Creekmore Circle Spring, TX 77389 $399,990 2,870 sq. ft. 10,019 sq. ft. $139
2018-10-29 Single Family Traditional 28110 Emma Gardens Lane Spring, TX 77386 $335,000 2,879 sq. ft. 6,970 sq. ft. $116
2018-10-29 Single Family Traditional 2811 Delmar Terrace Drive Spring, TX 77386 $405,900 3,651 sq. ft. 6,970 sq. ft. $111
2018-10-29 Single Family Traditional 23126 Southern Brook Trail Spring, TX 77389 $414,140 3,683 sq. ft. 8,712 sq. ft. $112
2018-10-29 Single Family Traditional 31 Rush Haven Drive Spring, TX 77381 $245,000 2,324 sq. ft. 10,019 sq. ft. $105
2018-10-29 Single Family Traditional 21215 Pinewalk Brook Lane Spring, TX 77379 $199,000 2,280 sq. ft. 5,663 sq. ft. $87
2018-10-29 Single Family Traditional 6131 Springbrook Garden Lane Spring, TX 77379 $210,000 2,427 sq. ft. 6,098 sq. ft. $87
2018-10-29 Single Family Traditional 22007 Bridgestone Hawk Court Spring, TX 77388 $320,000 3,972 sq. ft. 13,068 sq. ft. $81
2018-10-29 Single Family Traditional 622 Aulia Lane Spring, TX 77386 $223,000 1,927 sq. ft. 4,356 sq. ft. $116
2018-10-29 Single Family Traditional 23707 Prairie Bird Drive Spring, TX 77373 $135,000 1,434 sq. ft. 7,841 sq. ft. $94
2018-10-29 Single Family Traditional 23311 Cape Cottage Court Spring, TX 77373 $200,550 1,621 sq. ft. 8,712 sq. ft. $124
2018-10-29 Single Family Traditional 2914 Rustling Chestnut Street Spring, TX 77389 $195,000 2,657 sq. ft. 4,792 sq. ft. $73
2018-10-29 Single Family Traditional 7815 Aleta Drive Spring, TX 77379 $275,000 2,989 sq. ft. 10,454 sq. ft. $92
2018-10-28 Single Family Traditional 38 Ginger Jar Street Spring, TX 77382 $265,000 2,181 sq. ft. 3,920 sq. ft. $122
2018-10-28 Single Family Traditional 23131 Whittaker Way Spring, TX 77373 $105,000 1,098 sq. ft. 3,485 sq. ft. $96
2018-10-28 Single Family Traditional 3838 Fleetwood Spring, TX 77386 $259,376 2,054 sq. ft. $126
2018-10-28 Single Family English 18002 Vintage Wood Lane Spring, TX 77379 $259,900 2,999 sq. ft. 13,939 sq. ft. $87
2018-10-28 Single Family Traditional 29415 Raestone Street Spring, TX 77386 $159,000 1,556 sq. ft. 6,534 sq. ft. $102
2018-10-27 Single Family Contemporary/Modern 4219 Mossy Oaks Road Spring, TX 77389 $359,000 2,402 sq. ft. 62,291 sq. ft. $149
2018-10-27 Single Family Traditional 24507 Alli Creek Court Spring, TX 77389 $359,900 3,080 sq. ft. 7,841 sq. ft. $117
2018-10-27 Single Family Traditional 21402 Nottinghill Drive Spring, TX 77388 $187,000 1,887 sq. ft. 6,098 sq. ft. $99
2018-10-27 Single Family Mediterranean 11 Legacy Point Circle Spring, TX 77382 $999,000 5,876 sq. ft. 32,234 sq. ft. $170
2018-10-27 Single Family Traditional 3618 Bluebonnet Trace Drive Spring, TX 77386 $375,000 3,683 sq. ft. 8,712 sq. ft. $102